sensor_id;sensor_type;location;lat;lon;timestamp;P1;durP1;ratioP1;P2;durP2;ratioP2
11962;SDS011;62678;52.130;5.584;2023-09-18T00:00:02;72.70;;;49.47;;
11962;SDS011;62678;52.130;5.584;2023-09-18T00:02:33;69.93;;;50.40;;
11962;SDS011;62678;52.130;5.584;2023-09-18T00:05:00;71.30;;;51.47;;
11962;SDS011;62678;52.130;5.584;2023-09-18T00:07:27;66.82;;;50.30;;
11962;SDS011;62678;52.130;5.584;2023-09-18T00:09:56;74.40;;;51.45;;
11962;SDS011;62678;52.130;5.584;2023-09-18T00:12:23;74.65;;;52.03;;
11962;SDS011;62678;52.130;5.584;2023-09-18T00:14:50;64.72;;;48.38;;
11962;SDS011;62678;52.130;5.584;2023-09-18T00:17:17;70.75;;;50.65;;
11962;SDS011;62678;52.130;5.584;2023-09-18T00:19:44;71.10;;;52.13;;
11962;SDS011;62678;52.130;5.584;2023-09-18T00:22:11;66.93;;;48.33;;
11962;SDS011;62678;52.130;5.584;2023-09-18T00:24:38;75.40;;;52.03;;
11962;SDS011;62678;52.130;5.584;2023-09-18T00:27:07;71.22;;;51.10;;
11962;SDS011;62678;52.130;5.584;2023-09-18T00:29:36;73.75;;;52.22;;
11962;SDS011;62678;52.130;5.584;2023-09-18T00:32:03;71.47;;;53.20;;
11962;SDS011;62678;52.130;5.584;2023-09-18T00:34:31;73.40;;;52.95;;
11962;SDS011;62678;52.130;5.584;2023-09-18T00:36:58;74.38;;;53.75;;
11962;SDS011;62678;52.130;5.584;2023-09-18T00:39:25;74.50;;;54.33;;
11962;SDS011;62678;52.130;5.584;2023-09-18T00:41:52;77.60;;;53.42;;
11962;SDS011;62678;52.130;5.584;2023-09-18T00:44:21;79.75;;;53.55;;
11962;SDS011;62678;52.130;5.584;2023-09-18T00:46:48;70.82;;;51.90;;
11962;SDS011;62678;52.130;5.584;2023-09-18T00:49:16;70.63;;;52.78;;
11962;SDS011;62678;52.130;5.584;2023-09-18T00:51:44;75.13;;;52.38;;
11962;SDS011;62678;52.130;5.584;2023-09-18T00:54:12;70.88;;;50.67;;
11962;SDS011;62678;52.130;5.584;2023-09-18T00:56:43;63.13;;;50.05;;
11962;SDS011;62678;52.130;5.584;2023-09-18T00:59:10;64.78;;;49.35;;
11962;SDS011;62678;52.130;5.584;2023-09-18T01:01:40;66.10;;;49.22;;
11962;SDS011;62678;52.130;5.584;2023-09-18T01:04:08;62.85;;;47.78;;
11962;SDS011;62678;52.130;5.584;2023-09-18T01:06:35;63.03;;;47.67;;
11962;SDS011;62678;52.130;5.584;2023-09-18T01:09:03;65.22;;;47.58;;
11962;SDS011;62678;52.130;5.584;2023-09-18T01:11:40;62.75;;;47.88;;
11962;SDS011;62678;52.130;5.584;2023-09-18T01:14:12;58.67;;;45.25;;
11962;SDS011;62678;52.130;5.584;2023-09-18T01:16:48;61.90;;;46.53;;
11962;SDS011;62678;52.130;5.584;2023-09-18T01:19:34;59.20;;;44.85;;
11962;SDS011;62678;52.130;5.584;2023-09-18T01:22:02;55.20;;;43.35;;
11962;SDS011;62678;52.130;5.584;2023-09-18T01:24:31;54.50;;;41.03;;
11962;SDS011;62678;52.130;5.584;2023-09-18T01:26:58;50.55;;;41.17;;
11962;SDS011;62678;52.130;5.584;2023-09-18T01:29:25;53.08;;;42.53;;
11962;SDS011;62678;52.130;5.584;2023-09-18T01:31:52;52.75;;;41.35;;
11962;SDS011;62678;52.130;5.584;2023-09-18T01:34:20;49.65;;;40.30;;
11962;SDS011;62678;52.130;5.584;2023-09-18T01:36:51;48.83;;;38.88;;
11962;SDS011;62678;52.130;5.584;2023-09-18T01:39:19;49.15;;;38.47;;
11962;SDS011;62678;52.130;5.584;2023-09-18T01:41:48;47.25;;;38.22;;
11962;SDS011;62678;52.130;5.584;2023-09-18T01:44:16;49.80;;;37.80;;
11962;SDS011;62678;52.130;5.584;2023-09-18T01:46:43;46.22;;;37.72;;
11962;SDS011;62678;52.130;5.584;2023-09-18T01:49:11;48.92;;;38.75;;
11962;SDS011;62678;52.130;5.584;2023-09-18T01:51:38;45.15;;;36.30;;
11962;SDS011;62678;52.130;5.584;2023-09-18T01:54:05;45.80;;;37.38;;
11962;SDS011;62678;52.130;5.584;2023-09-18T01:56:32;45.83;;;35.50;;
11962;SDS011;62678;52.130;5.584;2023-09-18T01:59:01;45.17;;;36.08;;
11962;SDS011;62678;52.130;5.584;2023-09-18T02:01:28;44.40;;;34.25;;
11962;SDS011;62678;52.130;5.584;2023-09-18T02:03:55;42.97;;;33.80;;
11962;SDS011;62678;52.130;5.584;2023-09-18T02:06:22;40.47;;;33.75;;
11962;SDS011;62678;52.130;5.584;2023-09-18T02:08:49;41.78;;;34.28;;
11962;SDS011;62678;52.130;5.584;2023-09-18T02:11:18;41.40;;;32.42;;
11962;SDS011;62678;52.130;5.584;2023-09-18T02:13:45;42.00;;;32.95;;
11962;SDS011;62678;52.130;5.584;2023-09-18T02:16:13;42.17;;;34.05;;
11962;SDS011;62678;52.130;5.584;2023-09-18T02:18:40;41.78;;;33.53;;
11962;SDS011;62678;52.130;5.584;2023-09-18T02:21:08;40.30;;;32.55;;
11962;SDS011;62678;52.130;5.584;2023-09-18T02:23:35;48.40;;;33.90;;
11962;SDS011;62678;52.130;5.584;2023-09-18T02:26:02;42.78;;;33.65;;
11962;SDS011;62678;52.130;5.584;2023-09-18T02:28:29;42.53;;;32.58;;
11962;SDS011;62678;52.130;5.584;2023-09-18T02:30:56;42.88;;;32.85;;
11962;SDS011;62678;52.130;5.584;2023-09-18T02:33:25;42.60;;;32.10;;
11962;SDS011;62678;52.130;5.584;2023-09-18T02:35:52;40.75;;;30.63;;
11962;SDS011;62678;52.130;5.584;2023-09-18T02:38:19;39.20;;;30.38;;
11962;SDS011;62678;52.130;5.584;2023-09-18T02:40:46;37.50;;;29.52;;
11962;SDS011;62678;52.130;5.584;2023-09-18T02:43:13;38.38;;;29.85;;
11962;SDS011;62678;52.130;5.584;2023-09-18T02:45:40;35.08;;;28.58;;
11962;SDS011;62678;52.130;5.584;2023-09-18T02:48:07;34.60;;;27.42;;
11962;SDS011;62678;52.130;5.584;2023-09-18T02:50:35;34.85;;;26.88;;
11962;SDS011;62678;52.130;5.584;2023-09-18T02:53:02;35.17;;;27.08;;
11962;SDS011;62678;52.130;5.584;2023-09-18T02:55:31;35.20;;;27.30;;
11962;SDS011;62678;52.130;5.584;2023-09-18T02:57:59;31.58;;;25.88;;
11962;SDS011;62678;52.130;5.584;2023-09-18T03:00:26;33.15;;;27.55;;
11962;SDS011;62678;52.130;5.584;2023-09-18T03:02:53;37.03;;;27.77;;
11962;SDS011;62678;52.130;5.584;2023-09-18T03:05:20;34.42;;;27.60;;
11962;SDS011;62678;52.130;5.584;2023-09-18T03:07:48;35.72;;;27.15;;
11962;SDS011;62678;52.130;5.584;2023-09-18T03:10:15;36.45;;;27.85;;
11962;SDS011;62678;52.130;5.584;2023-09-18T03:12:43;37.92;;;27.42;;
11962;SDS011;62678;52.130;5.584;2023-09-18T03:15:14;39.75;;;28.05;;
11962;SDS011;62678;52.130;5.584;2023-09-18T03:17:41;38.85;;;28.40;;
11962;SDS011;62678;52.130;5.584;2023-09-18T03:20:08;37.38;;;28.40;;
11962;SDS011;62678;52.130;5.584;2023-09-18T03:22:36;35.05;;;27.70;;
11962;SDS011;62678;52.130;5.584;2023-09-18T03:25:04;34.85;;;29.13;;
11962;SDS011;62678;52.130;5.584;2023-09-18T03:27:32;34.38;;;28.85;;
11962;SDS011;62678;52.130;5.584;2023-09-18T03:29:59;34.53;;;28.42;;
11962;SDS011;62678;52.130;5.584;2023-09-18T03:32:26;38.28;;;27.83;;
11962;SDS011;62678;52.130;5.584;2023-09-18T03:34:53;36.45;;;28.17;;
11962;SDS011;62678;52.130;5.584;2023-09-18T03:37:20;35.13;;;27.75;;
11962;SDS011;62678;52.130;5.584;2023-09-18T03:39:47;40.05;;;30.60;;
11962;SDS011;62678;52.130;5.584;2023-09-18T03:42:15;34.03;;;28.13;;
11962;SDS011;62678;52.130;5.584;2023-09-18T03:44:42;36.95;;;27.77;;
11962;SDS011;62678;52.130;5.584;2023-09-18T03:47:09;39.53;;;29.60;;
11962;SDS011;62678;52.130;5.584;2023-09-18T03:49:36;40.25;;;29.75;;
11962;SDS011;62678;52.130;5.584;2023-09-18T03:52:03;36.78;;;28.92;;
11962;SDS011;62678;52.130;5.584;2023-09-18T03:54:30;39.47;;;29.55;;
11962;SDS011;62678;52.130;5.584;2023-09-18T03:56:57;37.10;;;29.10;;
11962;SDS011;62678;52.130;5.584;2023-09-18T03:59:25;34.30;;;27.88;;
11962;SDS011;62678;52.130;5.584;2023-09-18T04:01:52;38.05;;;29.15;;
11962;SDS011;62678;52.130;5.584;2023-09-18T04:04:19;43.47;;;29.45;;
11962;SDS011;62678;52.130;5.584;2023-09-18T04:06:46;38.25;;;29.52;;
11962;SDS011;62678;52.130;5.584;2023-09-18T04:09:14;47.67;;;31.05;;
11962;SDS011;62678;52.130;5.584;2023-09-18T04:11:43;38.28;;;30.48;;
11962;SDS011;62678;52.130;5.584;2023-09-18T04:14:10;45.53;;;32.80;;
11962;SDS011;62678;52.130;5.584;2023-09-18T04:16:38;41.97;;;32.25;;
11962;SDS011;62678;52.130;5.584;2023-09-18T04:19:08;42.92;;;32.75;;
11962;SDS011;62678;52.130;5.584;2023-09-18T04:21:35;45.35;;;32.65;;
11962;SDS011;62678;52.130;5.584;2023-09-18T04:24:03;47.17;;;32.97;;
11962;SDS011;62678;52.130;5.584;2023-09-18T04:26:30;43.05;;;32.72;;
11962;SDS011;62678;52.130;5.584;2023-09-18T04:28:58;44.22;;;32.42;;
11962;SDS011;62678;52.130;5.584;2023-09-18T04:31:26;47.58;;;33.28;;
11962;SDS011;62678;52.130;5.584;2023-09-18T04:33:55;44.78;;;32.47;;
11962;SDS011;62678;52.130;5.584;2023-09-18T04:36:22;44.58;;;32.97;;
11962;SDS011;62678;52.130;5.584;2023-09-18T04:38:49;44.65;;;32.75;;
11962;SDS011;62678;52.130;5.584;2023-09-18T04:41:16;44.42;;;32.97;;
11962;SDS011;62678;52.130;5.584;2023-09-18T04:43:43;42.63;;;31.75;;
11962;SDS011;62678;52.130;5.584;2023-09-18T04:46:10;47.42;;;32.65;;
11962;SDS011;62678;52.130;5.584;2023-09-18T04:48:38;43.85;;;33.15;;
11962;SDS011;62678;52.130;5.584;2023-09-18T04:51:06;43.88;;;32.80;;
11962;SDS011;62678;52.130;5.584;2023-09-18T04:53:33;44.65;;;32.78;;
11962;SDS011;62678;52.130;5.584;2023-09-18T04:56:00;47.35;;;33.33;;
11962;SDS011;62678;52.130;5.584;2023-09-18T04:58:28;43.22;;;32.20;;
11962;SDS011;62678;52.130;5.584;2023-09-18T05:00:55;44.70;;;33.00;;
11962;SDS011;62678;52.130;5.584;2023-09-18T05:03:23;39.95;;;30.40;;
11962;SDS011;62678;52.130;5.584;2023-09-18T05:05:51;37.97;;;28.70;;
11962;SDS011;62678;52.130;5.584;2023-09-18T05:08:20;38.42;;;29.00;;
11962;SDS011;62678;52.130;5.584;2023-09-18T05:10:47;38.78;;;27.17;;
11962;SDS011;62678;52.130;5.584;2023-09-18T05:13:14;39.15;;;27.90;;
11962;SDS011;62678;52.130;5.584;2023-09-18T05:15:41;42.97;;;28.75;;
11962;SDS011;62678;52.130;5.584;2023-09-18T05:18:08;40.00;;;28.35;;
11962;SDS011;62678;52.130;5.584;2023-09-18T05:20:35;32.75;;;21.73;;
11962;SDS011;62678;52.130;5.584;2023-09-18T05:23:02;28.05;;;20.30;;
11962;SDS011;62678;52.130;5.584;2023-09-18T05:25:30;23.63;;;18.02;;
11962;SDS011;62678;52.130;5.584;2023-09-18T05:27:58;24.27;;;18.63;;
11962;SDS011;62678;52.130;5.584;2023-09-18T05:30:26;24.58;;;18.83;;
11962;SDS011;62678;52.130;5.584;2023-09-18T05:32:54;25.52;;;18.88;;
11962;SDS011;62678;52.130;5.584;2023-09-18T05:35:22;23.10;;;18.30;;
11962;SDS011;62678;52.130;5.584;2023-09-18T05:37:49;30.23;;;21.65;;
11962;SDS011;62678;52.130;5.584;2023-09-18T05:40:17;32.55;;;25.10;;
11962;SDS011;62678;52.130;5.584;2023-09-18T05:42:45;36.58;;;25.75;;
11962;SDS011;62678;52.130;5.584;2023-09-18T05:45:12;38.63;;;27.92;;
11962;SDS011;62678;52.130;5.584;2023-09-18T05:47:40;39.42;;;28.45;;
11962;SDS011;62678;52.130;5.584;2023-09-18T05:50:09;41.58;;;30.05;;
11962;SDS011;62678;52.130;5.584;2023-09-18T05:52:41;42.97;;;30.02;;
11962;SDS011;62678;52.130;5.584;2023-09-18T05:55:08;40.80;;;29.85;;
11962;SDS011;62678;52.130;5.584;2023-09-18T05:57:36;41.95;;;29.88;;
11962;SDS011;62678;52.130;5.584;2023-09-18T06:00:05;43.42;;;31.05;;
11962;SDS011;62678;52.130;5.584;2023-09-18T06:02:33;42.10;;;31.05;;
11962;SDS011;62678;52.130;5.584;2023-09-18T06:05:00;45.92;;;32.38;;
11962;SDS011;62678;52.130;5.584;2023-09-18T06:07:28;40.75;;;31.17;;
11962;SDS011;62678;52.130;5.584;2023-09-18T06:09:55;43.28;;;31.10;;
11962;SDS011;62678;52.130;5.584;2023-09-18T06:12:22;44.35;;;31.45;;
11962;SDS011;62678;52.130;5.584;2023-09-18T06:14:50;47.13;;;30.25;;
11962;SDS011;62678;52.130;5.584;2023-09-18T06:17:18;50.83;;;32.70;;
11962;SDS011;62678;52.130;5.584;2023-09-18T06:19:45;47.50;;;32.67;;
11962;SDS011;62678;52.130;5.584;2023-09-18T06:22:13;43.53;;;32.67;;
11962;SDS011;62678;52.130;5.584;2023-09-18T06:24:40;46.65;;;32.30;;
11962;SDS011;62678;52.130;5.584;2023-09-18T06:27:07;47.33;;;33.20;;
11962;SDS011;62678;52.130;5.584;2023-09-18T06:29:36;47.05;;;32.40;;
11962;SDS011;62678;52.130;5.584;2023-09-18T06:32:04;47.50;;;32.60;;
11962;SDS011;62678;52.130;5.584;2023-09-18T06:34:33;43.78;;;32.53;;
11962;SDS011;62678;52.130;5.584;2023-09-18T06:37:00;42.30;;;30.95;;
11962;SDS011;62678;52.130;5.584;2023-09-18T06:39:28;39.15;;;30.27;;
11962;SDS011;62678;52.130;5.584;2023-09-18T06:41:55;41.08;;;30.77;;
11962;SDS011;62678;52.130;5.584;2023-09-18T06:44:22;41.83;;;29.05;;
11962;SDS011;62678;52.130;5.584;2023-09-18T06:46:49;41.53;;;29.98;;
11962;SDS011;62678;52.130;5.584;2023-09-18T06:49:17;37.75;;;27.70;;
11962;SDS011;62678;52.130;5.584;2023-09-18T06:51:46;38.88;;;28.05;;
11962;SDS011;62678;52.130;5.584;2023-09-18T06:54:13;39.85;;;28.45;;
11962;SDS011;62678;52.130;5.584;2023-09-18T06:56:40;39.88;;;28.80;;
11962;SDS011;62678;52.130;5.584;2023-09-18T06:59:09;40.05;;;27.77;;
11962;SDS011;62678;52.130;5.584;2023-09-18T07:01:37;36.15;;;27.50;;
11962;SDS011;62678;52.130;5.584;2023-09-18T07:04:04;38.10;;;26.35;;
11962;SDS011;62678;52.130;5.584;2023-09-18T07:06:31;35.20;;;25.42;;
11962;SDS011;62678;52.130;5.584;2023-09-18T07:09:00;32.53;;;24.83;;
11962;SDS011;62678;52.130;5.584;2023-09-18T07:11:29;33.03;;;23.95;;
11962;SDS011;62678;52.130;5.584;2023-09-18T07:13:56;32.17;;;22.08;;
11962;SDS011;62678;52.130;5.584;2023-09-18T07:16:23;30.25;;;22.58;;
11962;SDS011;62678;52.130;5.584;2023-09-18T07:18:50;29.35;;;21.38;;
11962;SDS011;62678;52.130;5.584;2023-09-18T07:21:18;27.95;;;20.90;;
11962;SDS011;62678;52.130;5.584;2023-09-18T07:23:45;28.15;;;19.55;;
11962;SDS011;62678;52.130;5.584;2023-09-18T07:26:15;26.25;;;18.00;;
11962;SDS011;62678;52.130;5.584;2023-09-18T07:28:41;22.52;;;17.63;;
11962;SDS011;62678;52.130;5.584;2023-09-18T07:31:09;21.00;;;16.70;;
11962;SDS011;62678;52.130;5.584;2023-09-18T07:33:39;18.38;;;15.95;;
11962;SDS011;62678;52.130;5.584;2023-09-18T07:36:06;19.25;;;14.90;;
11962;SDS011;62678;52.130;5.584;2023-09-18T07:38:35;19.85;;;14.93;;
11962;SDS011;62678;52.130;5.584;2023-09-18T07:41:02;18.63;;;15.30;;
11962;SDS011;62678;52.130;5.584;2023-09-18T07:43:31;15.80;;;13.98;;
11962;SDS011;62678;52.130;5.584;2023-09-18T07:45:58;20.98;;;15.00;;
11962;SDS011;62678;52.130;5.584;2023-09-18T07:48:25;17.45;;;13.82;;
11962;SDS011;62678;52.130;5.584;2023-09-18T07:50:52;14.88;;;13.23;;
11962;SDS011;62678;52.130;5.584;2023-09-18T07:53:19;18.75;;;13.35;;
11962;SDS011;62678;52.130;5.584;2023-09-18T07:55:47;18.52;;;13.35;;
11962;SDS011;62678;52.130;5.584;2023-09-18T07:58:15;14.88;;;12.85;;
11962;SDS011;62678;52.130;5.584;2023-09-18T08:00:43;14.52;;;12.65;;
11962;SDS011;62678;52.130;5.584;2023-09-18T08:03:10;13.75;;;11.73;;
11962;SDS011;62678;52.130;5.584;2023-09-18T08:05:37;13.82;;;11.93;;
11962;SDS011;62678;52.130;5.584;2023-09-18T08:08:04;13.23;;;11.48;;
11962;SDS011;62678;52.130;5.584;2023-09-18T08:10:31;12.63;;;11.10;;
11962;SDS011;62678;52.130;5.584;2023-09-18T08:12:58;12.68;;;10.73;;
11962;SDS011;62678;52.130;5.584;2023-09-18T08:15:25;12.93;;;11.55;;
11962;SDS011;62678;52.130;5.584;2023-09-18T08:17:53;13.18;;;10.48;;
11962;SDS011;62678;52.130;5.584;2023-09-18T08:20:21;11.25;;;9.77;;
11962;SDS011;62678;52.130;5.584;2023-09-18T08:22:48;10.57;;;9.10;;
11962;SDS011;62678;52.130;5.584;2023-09-18T08:25:15;10.63;;;9.63;;
11962;SDS011;62678;52.130;5.584;2023-09-18T08:27:42;11.82;;;8.68;;
11962;SDS011;62678;52.130;5.584;2023-09-18T08:30:10;9.88;;;8.27;;
11962;SDS011;62678;52.130;5.584;2023-09-18T08:32:38;11.02;;;8.30;;
11962;SDS011;62678;52.130;5.584;2023-09-18T08:35:08;9.60;;;8.65;;
11962;SDS011;62678;52.130;5.584;2023-09-18T08:37:35;11.15;;;8.60;;
11962;SDS011;62678;52.130;5.584;2023-09-18T08:40:02;9.55;;;8.38;;
11962;SDS011;62678;52.130;5.584;2023-09-18T08:42:34;11.32;;;8.63;;
11962;SDS011;62678;52.130;5.584;2023-09-18T08:45:04;9.45;;;8.45;;
11962;SDS011;62678;52.130;5.584;2023-09-18T08:47:35;11.60;;;8.02;;
11962;SDS011;62678;52.130;5.584;2023-09-18T08:50:06;9.40;;;8.18;;
11962;SDS011;62678;52.130;5.584;2023-09-18T08:52:35;11.48;;;8.52;;
11962;SDS011;62678;52.130;5.584;2023-09-18T08:55:03;10.32;;;7.93;;
11962;SDS011;62678;52.130;5.584;2023-09-18T08:57:31;7.72;;;7.00;;
11962;SDS011;62678;52.130;5.584;2023-09-18T09:00:00;8.02;;;7.22;;
11962;SDS011;62678;52.130;5.584;2023-09-18T09:02:32;10.07;;;7.00;;
11962;SDS011;62678;52.130;5.584;2023-09-18T09:04:59;9.68;;;6.32;;
11962;SDS011;62678;52.130;5.584;2023-09-18T09:07:28;7.57;;;6.53;;
11962;SDS011;62678;52.130;5.584;2023-09-18T09:09:56;7.05;;;6.30;;
11962;SDS011;62678;52.130;5.584;2023-09-18T09:15:15;8.30;;;5.88;;
11962;SDS011;62678;52.130;5.584;2023-09-18T09:17:42;8.20;;;5.93;;
11962;SDS011;62678;52.130;5.584;2023-09-18T09:20:10;8.40;;;5.80;;
11962;SDS011;62678;52.130;5.584;2023-09-18T09:22:41;8.88;;;5.50;;
11962;SDS011;62678;52.130;5.584;2023-09-18T09:25:24;6.20;;;5.50;;
11962;SDS011;62678;52.130;5.584;2023-09-18T09:27:57;8.00;;;4.85;;
11962;SDS011;62678;52.130;5.584;2023-09-18T09:30:25;6.47;;;4.95;;
11962;SDS011;62678;52.130;5.584;2023-09-18T09:32:53;4.68;;;4.35;;
11962;SDS011;62678;52.130;5.584;2023-09-18T09:35:22;5.28;;;4.75;;
11962;SDS011;62678;52.130;5.584;2023-09-18T09:37:53;5.97;;;3.92;;
11962;SDS011;62678;52.130;5.584;2023-09-18T09:40:25;4.43;;;4.00;;
11962;SDS011;62678;52.130;5.584;2023-09-18T09:42:55;5.97;;;3.55;;
11962;SDS011;62678;52.130;5.584;2023-09-18T09:45:27;7.32;;;4.85;;
11962;SDS011;62678;52.130;5.584;2023-09-18T09:47:55;4.80;;;4.30;;
11962;SDS011;62678;52.130;5.584;2023-09-18T09:50:23;6.97;;;3.38;;
11962;SDS011;62678;52.130;5.584;2023-09-18T09:52:52;4.40;;;3.40;;
11962;SDS011;62678;52.130;5.584;2023-09-18T09:55:22;7.55;;;3.58;;
11962;SDS011;62678;52.130;5.584;2023-09-18T09:57:51;6.15;;;3.63;;
11962;SDS011;62678;52.130;5.584;2023-09-18T10:00:22;3.97;;;3.13;;
11962;SDS011;62678;52.130;5.584;2023-09-18T10:02:59;3.50;;;3.20;;
11962;SDS011;62678;52.130;5.584;2023-09-18T10:05:28;4.72;;;3.15;;
11962;SDS011;62678;52.130;5.584;2023-09-18T10:08:00;5.25;;;2.97;;
11962;SDS011;62678;52.130;5.584;2023-09-18T10:10:31;5.07;;;3.03;;
11962;SDS011;62678;52.130;5.584;2023-09-18T10:13:15;5.32;;;3.05;;
11962;SDS011;62678;52.130;5.584;2023-09-18T10:15:44;5.15;;;2.97;;
11962;SDS011;62678;52.130;5.584;2023-09-18T10:18:16;4.53;;;2.80;;
11962;SDS011;62678;52.130;5.584;2023-09-18T10:20:47;4.60;;;3.17;;
11962;SDS011;62678;52.130;5.584;2023-09-18T10:23:27;6.28;;;2.97;;
11962;SDS011;62678;52.130;5.584;2023-09-18T10:26:04;5.82;;;2.40;;
11962;SDS011;62678;52.130;5.584;2023-09-18T10:28:33;5.93;;;2.67;;
11962;SDS011;62678;52.130;5.584;2023-09-18T10:31:01;3.58;;;2.50;;
11962;SDS011;62678;52.130;5.584;2023-09-18T10:33:31;6.30;;;2.70;;
11962;SDS011;62678;52.130;5.584;2023-09-18T10:35:58;5.18;;;3.42;;
11962;SDS011;62678;52.130;5.584;2023-09-18T10:38:30;4.82;;;4.28;;
11962;SDS011;62678;52.130;5.584;2023-09-18T10:40:58;5.13;;;4.35;;
11962;SDS011;62678;52.130;5.584;2023-09-18T10:43:26;5.00;;;4.50;;
11962;SDS011;62678;52.130;5.584;2023-09-18T10:45:53;8.00;;;5.03;;
11962;SDS011;62678;52.130;5.584;2023-09-18T10:48:21;7.05;;;5.35;;
11962;SDS011;62678;52.130;5.584;2023-09-18T10:50:50;9.32;;;5.60;;
11962;SDS011;62678;52.130;5.584;2023-09-18T10:53:18;6.80;;;5.70;;
11962;SDS011;62678;52.130;5.584;2023-09-18T10:55:47;8.30;;;5.93;;
11962;SDS011;62678;52.130;5.584;2023-09-18T10:58:22;8.88;;;6.57;;
11962;SDS011;62678;52.130;5.584;2023-09-18T11:00:51;9.35;;;7.22;;
11962;SDS011;62678;52.130;5.584;2023-09-18T11:03:21;8.85;;;6.82;;
11962;SDS011;62678;52.130;5.584;2023-09-18T11:06:01;7.80;;;6.63;;
11962;SDS011;62678;52.130;5.584;2023-09-18T11:08:29;9.93;;;7.28;;
11962;SDS011;62678;52.130;5.584;2023-09-18T11:11:00;8.90;;;6.95;;
11962;SDS011;62678;52.130;5.584;2023-09-18T11:13:35;10.20;;;7.85;;
11962;SDS011;62678;52.130;5.584;2023-09-18T11:16:18;8.55;;;7.75;;
11962;SDS011;62678;52.130;5.584;2023-09-18T11:19:05;9.68;;;7.78;;
11962;SDS011;62678;52.130;5.584;2023-09-18T11:21:35;11.75;;;8.18;;
11962;SDS011;62678;52.130;5.584;2023-09-18T11:24:03;10.90;;;8.18;;
11962;SDS011;62678;52.130;5.584;2023-09-18T11:26:33;8.77;;;7.95;;
11962;SDS011;62678;52.130;5.584;2023-09-18T11:29:01;10.10;;;7.35;;
11962;SDS011;62678;52.130;5.584;2023-09-18T11:31:43;8.90;;;8.00;;
11962;SDS011;62678;52.130;5.584;2023-09-18T11:34:13;8.73;;;7.82;;
11962;SDS011;62678;52.130;5.584;2023-09-18T11:36:40;9.75;;;8.13;;
11962;SDS011;62678;52.130;5.584;2023-09-18T11:39:08;8.88;;;8.00;;
11962;SDS011;62678;52.130;5.584;2023-09-18T11:41:38;11.88;;;7.95;;
11962;SDS011;62678;52.130;5.584;2023-09-18T11:47:11;7.72;;;6.85;;
11962;SDS011;62678;52.130;5.584;2023-09-18T11:49:45;8.35;;;7.18;;
11962;SDS011;62678;52.130;5.584;2023-09-18T11:52:15;9.63;;;7.50;;
11962;SDS011;62678;52.130;5.584;2023-09-18T11:54:44;10.05;;;8.10;;
11962;SDS011;62678;52.130;5.584;2023-09-18T11:57:13;11.38;;;7.43;;
11962;SDS011;62678;52.130;5.584;2023-09-18T11:59:41;8.50;;;6.32;;
11962;SDS011;62678;52.130;5.584;2023-09-18T12:02:11;8.02;;;6.38;;
11962;SDS011;62678;52.130;5.584;2023-09-18T12:04:45;8.02;;;4.97;;
11962;SDS011;62678;52.130;5.584;2023-09-18T12:07:13;12.07;;;4.40;;
11962;SDS011;62678;52.130;5.584;2023-09-18T12:09:40;7.35;;;4.50;;
11962;SDS011;62678;52.130;5.584;2023-09-18T12:12:07;6.95;;;3.92;;
11962;SDS011;62678;52.130;5.584;2023-09-18T12:14:37;6.60;;;3.78;;
11962;SDS011;62678;52.130;5.584;2023-09-18T12:17:07;7.90;;;4.50;;
11962;SDS011;62678;52.130;5.584;2023-09-18T12:19:34;6.65;;;4.32;;
11962;SDS011;62678;52.130;5.584;2023-09-18T12:22:01;7.03;;;3.90;;
11962;SDS011;62678;52.130;5.584;2023-09-18T12:24:29;6.20;;;4.32;;
11962;SDS011;62678;52.130;5.584;2023-09-18T12:26:56;6.18;;;3.92;;
11962;SDS011;62678;52.130;5.584;2023-09-18T12:29:25;7.43;;;4.30;;
11962;SDS011;62678;52.130;5.584;2023-09-18T12:31:54;6.03;;;3.88;;
11962;SDS011;62678;52.130;5.584;2023-09-18T12:34:21;6.68;;;3.30;;
11962;SDS011;62678;52.130;5.584;2023-09-18T12:36:49;5.43;;;3.58;;
11962;SDS011;62678;52.130;5.584;2023-09-18T12:39:16;7.47;;;4.30;;
11962;SDS011;62678;52.130;5.584;2023-09-18T12:41:44;10.25;;;4.30;;
11962;SDS011;62678;52.130;5.584;2023-09-18T12:44:13;7.75;;;4.00;;
11962;SDS011;62678;52.130;5.584;2023-09-18T12:46:41;8.02;;;4.03;;
11962;SDS011;62678;52.130;5.584;2023-09-18T12:49:20;4.28;;;3.88;;
11962;SDS011;62678;52.130;5.584;2023-09-18T12:51:55;10.10;;;4.53;;
11962;SDS011;62678;52.130;5.584;2023-09-18T12:54:35;6.35;;;4.00;;
11962;SDS011;62678;52.130;5.584;2023-09-18T12:57:06;4.50;;;4.10;;
11962;SDS011;62678;52.130;5.584;2023-09-18T12:59:34;7.68;;;4.38;;
11962;SDS011;62678;52.130;5.584;2023-09-18T13:02:03;9.20;;;4.22;;
11962;SDS011;62678;52.130;5.584;2023-09-18T13:04:32;5.18;;;4.20;;
11962;SDS011;62678;52.130;5.584;2023-09-18T13:07:09;5.57;;;3.90;;
11962;SDS011;62678;52.130;5.584;2023-09-18T13:09:37;6.88;;;3.72;;
11962;SDS011;62678;52.130;5.584;2023-09-18T13:12:04;4.22;;;3.75;;
11962;SDS011;62678;52.130;5.584;2023-09-18T13:17:23;6.13;;;3.80;;
11962;SDS011;62678;52.130;5.584;2023-09-18T13:19:51;6.68;;;3.80;;
11962;SDS011;62678;52.130;5.584;2023-09-18T13:22:22;8.13;;;3.70;;
11962;SDS011;62678;52.130;5.584;2023-09-18T13:24:54;5.00;;;3.33;;
11962;SDS011;62678;52.130;5.584;2023-09-18T13:27:22;3.85;;;3.20;;
11962;SDS011;62678;52.130;5.584;2023-09-18T13:29:49;5.43;;;3.40;;
11962;SDS011;62678;52.130;5.584;2023-09-18T13:32:17;6.50;;;3.45;;
11962;SDS011;62678;52.130;5.584;2023-09-18T13:34:44;6.05;;;3.20;;
11962;SDS011;62678;52.130;5.584;2023-09-18T13:37:13;6.10;;;3.55;;
11962;SDS011;62678;52.130;5.584;2023-09-18T13:39:42;8.65;;;2.97;;
11962;SDS011;62678;52.130;5.584;2023-09-18T13:42:10;6.32;;;3.47;;
11962;SDS011;62678;52.130;5.584;2023-09-18T13:44:37;3.92;;;2.90;;
11962;SDS011;62678;52.130;5.584;2023-09-18T13:47:04;3.60;;;2.60;;
11962;SDS011;62678;52.130;5.584;2023-09-18T13:49:31;5.63;;;2.83;;
11962;SDS011;62678;52.130;5.584;2023-09-18T13:51:58;4.55;;;2.80;;
11962;SDS011;62678;52.130;5.584;2023-09-18T13:54:27;5.10;;;2.58;;
11962;SDS011;62678;52.130;5.584;2023-09-18T13:56:54;4.10;;;2.55;;
11962;SDS011;62678;52.130;5.584;2023-09-18T13:59:21;5.97;;;2.60;;
11962;SDS011;62678;52.130;5.584;2023-09-18T14:01:48;4.63;;;2.40;;
11962;SDS011;62678;52.130;5.584;2023-09-18T14:04:17;3.17;;;2.08;;
11962;SDS011;62678;52.130;5.584;2023-09-18T14:06:44;3.13;;;2.00;;
11962;SDS011;62678;52.130;5.584;2023-09-18T14:09:11;3.63;;;2.30;;
11962;SDS011;62678;52.130;5.584;2023-09-18T14:11:39;4.72;;;2.30;;
11962;SDS011;62678;52.130;5.584;2023-09-18T14:14:06;5.00;;;2.70;;
11962;SDS011;62678;52.130;5.584;2023-09-18T14:16:33;3.72;;;2.85;;
11962;SDS011;62678;52.130;5.584;2023-09-18T14:19:00;6.22;;;2.92;;
11962;SDS011;62678;52.130;5.584;2023-09-18T14:21:27;6.25;;;2.50;;
11962;SDS011;62678;52.130;5.584;2023-09-18T14:23:55;5.45;;;2.00;;
11962;SDS011;62678;52.130;5.584;2023-09-18T14:26:22;6.40;;;2.53;;
11962;SDS011;62678;52.130;5.584;2023-09-18T14:28:51;3.95;;;2.67;;
11962;SDS011;62678;52.130;5.584;2023-09-18T14:31:19;6.22;;;2.70;;
11962;SDS011;62678;52.130;5.584;2023-09-18T14:33:46;4.22;;;2.72;;
11962;SDS011;62678;52.130;5.584;2023-09-18T14:36:13;4.43;;;2.83;;
11962;SDS011;62678;52.130;5.584;2023-09-18T14:38:41;6.28;;;2.85;;
11962;SDS011;62678;52.130;5.584;2023-09-18T14:41:08;5.38;;;2.20;;
11962;SDS011;62678;52.130;5.584;2023-09-18T14:43:35;4.38;;;2.00;;
11962;SDS011;62678;52.130;5.584;2023-09-18T14:46:04;2.75;;;1.80;;